createdAt,value
2022-10-01T00:00:43.244Z,51.216087
2022-10-01T00:01:43.299Z,51.216133
2022-10-01T00:02:43.254Z,51.216148
2022-10-01T00:03:43.220Z,51.216167
2022-10-01T00:04:43.216Z,51.216106
2022-10-01T00:05:43.211Z,51.216106
2022-10-01T00:06:43.212Z,51.216099
2022-10-01T00:07:43.190Z,51.216122
2022-10-01T00:08:43.192Z,51.216133
2022-10-01T00:09:43.181Z,51.216125
2022-10-01T00:10:43.167Z,51.216122
2022-10-01T00:11:43.318Z,51.216114
2022-10-01T00:12:43.155Z,51.216156
2022-10-01T00:13:43.156Z,51.216156
2022-10-01T00:14:43.140Z,51.216125
2022-10-01T00:15:43.128Z,51.216099
2022-10-01T00:16:43.195Z,51.216080
2022-10-01T00:17:43.126Z,51.216133
2022-10-01T00:18:43.121Z,51.216148
2022-10-01T00:19:43.107Z,51.216091
2022-10-01T00:20:43.099Z,51.216053
2022-10-01T00:21:43.092Z,51.216068
2022-10-01T00:22:43.110Z,51.216087
2022-10-01T00:23:43.076Z,51.216042
2022-10-01T00:24:43.067Z,51.216057
2022-10-01T00:25:43.068Z,51.216103
2022-10-01T00:26:43.063Z,51.216042
2022-10-01T00:27:43.138Z,51.216019
2022-10-01T00:28:43.043Z,51.216076
2022-10-01T00:29:43.039Z,51.216103
2022-10-01T00:30:43.036Z,51.216129
2022-10-01T00:31:43.110Z,51.216133
2022-10-01T00:32:43.023Z,51.216194
2022-10-01T00:33:43.024Z,51.216118
2022-10-01T00:34:43.007Z,51.216125
2022-10-01T00:35:42.999Z,51.216236
2022-10-01T00:36:42.995Z,51.216160
2022-10-01T00:37:43.000Z,51.216156
2022-10-01T00:38:42.990Z,51.216129
2022-10-01T00:39:42.965Z,51.216156
2022-10-01T00:40:42.967Z,51.216068
2022-10-01T00:41:42.963Z,51.216114
2022-10-01T00:42:42.951Z,51.216171
2022-10-01T00:43:43.186Z,51.216129
2022-10-01T00:44:43.137Z,51.216099
2022-10-01T00:45:42.977Z,51.216087
2022-10-01T00:46:42.930Z,51.216061
2022-10-01T00:47:42.919Z,51.215954
2022-10-01T00:48:42.924Z,51.215900
2022-10-01T00:49:43.906Z,51.215939
2022-10-01T00:50:42.903Z,51.215816
2022-10-01T00:51:42.893Z,51.215939
2022-10-01T00:52:42.890Z,51.216030
2022-10-01T00:53:42.895Z,51.216022
2022-10-01T00:54:42.899Z,51.216003
2022-10-01T00:55:42.867Z,51.215950
2022-10-01T00:56:42.868Z,51.216057
2022-10-01T00:57:42.848Z,51.215961
2022-10-01T00:58:42.847Z,51.216057
2022-10-01T00:59:42.860Z,51.216049
2022-10-01T01:00:42.848Z,51.216137
2022-10-01T01:01:42.877Z,51.216293
2022-10-01T01:02:42.925Z,51.216320
2022-10-01T01:03:42.819Z,51.216522
2022-10-01T01:04:42.818Z,51.216400
2022-10-01T01:05:42.802Z,51.216297
2022-10-01T01:06:42.795Z,51.216244
2022-10-01T01:07:42.795Z,51.216278
2022-10-01T01:08:42.784Z,51.216393
2022-10-01T01:09:42.800Z,51.216339
2022-10-01T01:10:42.770Z,51.216385
2022-10-01T01:11:42.766Z,51.216206
2022-10-01T01:12:42.759Z,51.216087
2022-10-01T01:13:42.750Z,51.216122
2022-10-01T01:14:42.772Z,51.216122
2022-10-01T01:15:42.807Z,51.216187
2022-10-01T01:16:42.737Z,51.216148
2022-10-01T01:17:42.736Z,51.216156
2022-10-01T01:18:42.715Z,51.216251
2022-10-01T01:19:42.723Z,51.216125
2022-10-01T01:20:42.706Z,51.216122
2022-10-01T01:21:42.704Z,51.216175
2022-10-01T01:22:42.684Z,51.216148
2022-10-01T01:23:42.689Z,51.216106
2022-10-01T01:24:42.683Z,51.216106
2022-10-01T01:25:42.684Z,51.216106
2022-10-01T01:26:42.683Z,51.216129
2022-10-01T01:27:42.741Z,51.216129
2022-10-01T01:28:42.652Z,51.216110
2022-10-01T01:29:42.639Z,51.215996
2022-10-01T01:30:42.715Z,51.216129
2022-10-01T01:31:42.633Z,51.215981
2022-10-01T01:32:42.627Z,51.216084
2022-10-01T01:33:42.616Z,51.216057
2022-10-01T01:34:42.628Z,51.216038
2022-10-01T01:35:42.621Z,51.216045
2022-10-01T01:36:42.595Z,51.216049
2022-10-01T01:37:42.592Z,51.216183
2022-10-01T01:38:42.584Z,51.216064
2022-10-01T01:39:42.587Z,51.216038
2022-10-01T01:40:42.611Z,51.215897
2022-10-01T01:41:42.563Z,51.215897
2022-10-01T01:42:42.552Z,51.215927
2022-10-01T01:43:42.549Z,51.215858
2022-10-01T01:44:42.543Z,51.215927
2022-10-01T01:45:42.556Z,51.215908
2022-10-01T01:46:42.543Z,51.215855
2022-10-01T01:47:42.547Z,51.216122
2022-10-01T01:48:42.504Z,51.215923
2022-10-01T01:49:42.509Z,51.215988
2022-10-01T01:50:42.505Z,51.215874
2022-10-01T01:51:42.501Z,51.216000
2022-10-01T01:52:43.483Z,51.216042
2022-10-01T01:53:42.515Z,51.216026
2022-10-01T01:54:42.472Z,51.215988
2022-10-01T01:55:42.460Z,51.216042
2022-10-01T01:56:42.464Z,51.216053
2022-10-01T01:57:42.436Z,51.216045
2022-10-01T01:58:43.437Z,51.215775
2022-10-01T01:59:42.432Z,51.215652
2022-10-01T02:00:42.420Z,51.215466
2022-10-01T02:01:42.485Z,51.215527
2022-10-01T02:02:42.461Z,51.215984
2022-10-01T02:03:42.405Z,51.216137
2022-10-01T02:04:42.388Z,51.216042
2022-10-01T02:05:42.394Z,51.216068
2022-10-01T02:06:42.397Z,51.215992
2022-10-01T02:07:42.401Z,51.215744
2022-10-01T02:08:42.372Z,51.215721
2022-10-01T02:09:42.373Z,51.215664
2022-10-01T02:10:42.352Z,51.215878
2022-10-01T02:11:42.366Z,51.216000
2022-10-01T02:12:42.344Z,51.216110
2022-10-01T02:13:42.354Z,51.216217
2022-10-01T02:14:42.353Z,51.216122
2022-10-01T02:15:42.389Z,51.216099
2022-10-01T02:16:42.317Z,51.216064
2022-10-01T02:17:42.338Z,51.216034
2022-10-01T02:18:42.298Z,51.216000
2022-10-01T02:19:42.293Z,51.216145
2022-10-01T02:20:42.293Z,51.216221
2022-10-01T02:21:42.277Z,51.216228
2022-10-01T02:22:42.306Z,51.216148
2022-10-01T02:23:42.262Z,51.216297
2022-10-01T02:24:42.258Z,51.216469
2022-10-01T02:25:42.249Z,51.216507
2022-10-01T02:26:42.234Z,51.216530
2022-10-01T02:27:42.234Z,51.216507
2022-10-01T02:28:42.239Z,51.216370
2022-10-01T02:29:42.210Z,51.216309
2022-10-01T02:30:42.218Z,51.216217
2022-10-01T02:31:42.338Z,51.216141
2022-10-01T02:32:42.194Z,51.216187
2022-10-01T02:33:42.198Z,51.216293
2022-10-01T02:34:42.186Z,51.216309
2022-10-01T02:35:42.177Z,51.216362
2022-10-01T02:36:42.179Z,51.216347
2022-10-01T02:37:42.162Z,51.216499
2022-10-01T02:38:42.155Z,51.216305
2022-10-01T02:39:42.157Z,51.216286
2022-10-01T02:40:42.133Z,51.216236
2022-10-01T02:41:42.129Z,51.216103
2022-10-01T02:42:42.126Z,51.216118
2022-10-01T02:43:43.073Z,51.216080
2022-10-01T02:44:43.118Z,51.216049
2022-10-01T02:45:42.183Z,51.216030
2022-10-01T02:46:42.093Z,51.215916
2022-10-01T02:47:42.081Z,51.215816
2022-10-01T02:48:42.073Z,51.215664
2022-10-01T02:49:42.084Z,51.215900
2022-10-01T02:50:42.060Z,51.215942
2022-10-01T02:51:42.073Z,51.215954
2022-10-01T02:52:42.048Z,51.215866
2022-10-01T02:53:42.038Z,51.216026
2022-10-01T02:54:42.046Z,51.216080
2022-10-01T02:55:42.032Z,51.216068
2022-10-01T02:56:48.555Z,51.216228
2022-10-01T02:57:43.019Z,51.216194
2022-10-01T02:58:42.013Z,51.216129
2022-10-01T02:59:42.010Z,51.215973
2022-10-01T03:00:41.985Z,51.215919
2022-10-01T03:01:42.034Z,51.215836
2022-10-01T03:02:42.027Z,51.215858
2022-10-01T03:03:41.969Z,51.215824
2022-10-01T03:04:41.988Z,51.216000
2022-10-01T03:05:41.954Z,51.215977
2022-10-01T03:06:41.949Z,51.216042
2022-10-01T03:07:41.944Z,51.216129
2022-10-01T03:08:41.933Z,51.216125
2022-10-01T03:09:41.953Z,51.216148
2022-10-01T03:10:46.506Z,51.216129
2022-10-01T03:11:42.910Z,51.216179
2022-10-01T03:12:41.903Z,51.216183
2022-10-01T03:13:41.901Z,51.216125
2022-10-01T03:14:41.885Z,51.216221
2022-10-01T03:15:41.931Z,51.216068
2022-10-01T03:16:41.873Z,51.216038
2022-10-01T03:17:41.917Z,51.216095
2022-10-01T03:18:41.933Z,51.216015
2022-10-01T03:19:41.858Z,51.216156
2022-10-01T03:20:41.844Z,51.216183
2022-10-01T03:21:41.848Z,51.216160
2022-10-01T03:22:41.837Z,51.215992
2022-10-01T03:23:41.834Z,51.216057
2022-10-01T03:24:41.818Z,51.216068
2022-10-01T03:25:41.809Z,51.216164
2022-10-01T03:26:41.799Z,51.216156
2022-10-01T03:27:41.798Z,51.216152
2022-10-01T03:28:41.953Z,51.216110
2022-10-01T03:29:42.785Z,51.216003
2022-10-01T03:30:41.825Z,51.216064
2022-10-01T03:31:41.807Z,51.216202
2022-10-01T03:32:41.762Z,51.216133
2022-10-01T03:33:42.002Z,51.216095
2022-10-01T03:34:41.742Z,51.216045
2022-10-01T03:35:41.732Z,51.216179
2022-10-01T03:36:41.748Z,51.216095
2022-10-01T03:37:41.728Z,51.216103
2022-10-01T03:38:41.733Z,51.216053
2022-10-01T03:39:41.727Z,51.216026
2022-10-01T03:40:41.775Z,51.216095
2022-10-01T03:41:41.700Z,51.216122
2022-10-01T03:42:41.689Z,51.215946
2022-10-01T03:43:41.685Z,51.216068
2022-10-01T03:44:41.705Z,51.216148
2022-10-01T03:45:41.735Z,51.216145
2022-10-01T03:46:41.660Z,51.216171
2022-10-01T03:47:41.653Z,51.216198
2022-10-01T03:48:41.633Z,51.216187
2022-10-01T03:49:41.662Z,51.216129
2022-10-01T03:50:41.658Z,51.216133
2022-10-01T03:51:41.630Z,51.216148
2022-10-01T03:52:41.624Z,51.216133
2022-10-01T03:53:41.618Z,51.216206
2022-10-01T03:54:41.605Z,51.216206
2022-10-01T03:55:41.604Z,51.216160
2022-10-01T03:56:41.601Z,51.216167
2022-10-01T03:57:41.577Z,51.216145
2022-10-01T03:58:41.570Z,51.216198
2022-10-01T03:59:41.561Z,51.216179
2022-10-01T04:00:41.561Z,51.216160
2022-10-01T04:01:41.621Z,51.216145
2022-10-01T04:02:41.640Z,51.216217
2022-10-01T04:03:41.533Z,51.216084
2022-10-01T04:04:41.543Z,51.216000
2022-10-01T04:05:41.523Z,51.216045
2022-10-01T04:06:41.517Z,51.216133
2022-10-01T04:07:41.501Z,51.216148
2022-10-01T04:08:41.498Z,51.216148
2022-10-01T04:09:41.504Z,51.216209
2022-10-01T04:10:41.489Z,51.216049
2022-10-01T04:11:41.475Z,51.216022
2022-10-01T04:12:41.471Z,51.215973
2022-10-01T04:13:41.457Z,51.216038
2022-10-01T04:14:41.457Z,51.216011
2022-10-01T04:15:41.470Z,51.216110
2022-10-01T04:16:41.481Z,51.216084
2022-10-01T04:17:45.736Z,51.216095
2022-10-01T04:18:42.424Z,51.216015
2022-10-01T04:19:41.422Z,51.215992
2022-10-01T04:20:41.429Z,51.216038
2022-10-01T04:21:41.409Z,51.216068
2022-10-01T04:22:41.401Z,51.215889
2022-10-01T04:23:41.392Z,51.215988
2022-10-01T04:24:41.390Z,51.216022
2022-10-01T04:25:41.380Z,51.216137
2022-10-01T04:26:41.393Z,51.216084
2022-10-01T04:27:41.416Z,51.216194
2022-10-01T04:28:41.353Z,51.216114
2022-10-01T04:29:41.350Z,51.216068
2022-10-01T04:30:41.351Z,51.216038
2022-10-01T04:31:41.403Z,51.215935
2022-10-01T04:32:41.338Z,51.215981
2022-10-01T04:33:41.335Z,51.216045
2022-10-01T04:34:41.321Z,51.216064
2022-10-01T04:35:41.300Z,51.216125
2022-10-01T04:36:41.317Z,51.216206
2022-10-01T04:37:41.293Z,51.216068
2022-10-01T04:38:41.288Z,51.215973
2022-10-01T04:39:41.288Z,51.215954
2022-10-01T04:40:41.275Z,51.215996
2022-10-01T04:41:41.285Z,51.216026
2022-10-01T04:42:41.261Z,51.216026
2022-10-01T04:43:41.253Z,51.216110
2022-10-01T04:44:42.249Z,51.216114
2022-10-01T04:45:41.249Z,51.216194
2022-10-01T04:46:41.317Z,51.216187
2022-10-01T04:47:41.249Z,51.216194
2022-10-01T04:48:41.220Z,51.216209
2022-10-01T04:49:41.200Z,51.216183
2022-10-01T04:50:41.291Z,51.216198
2022-10-01T04:51:41.220Z,51.216244
2022-10-01T04:52:41.181Z,51.216221
2022-10-01T04:53:41.188Z,51.216179
2022-10-01T04:54:41.177Z,51.216190
2022-10-01T04:55:41.174Z,51.216202
2022-10-01T04:56:41.165Z,51.216137
2022-10-01T04:57:41.186Z,51.215965
2022-10-01T04:58:41.140Z,51.216042
2022-10-01T04:59:41.142Z,51.216080
2022-10-01T05:00:41.180Z,51.216110
2022-10-01T05:01:41.226Z,51.216114
2022-10-01T05:02:41.141Z,51.216160
2022-10-01T05:03:41.106Z,51.216190
2022-10-01T05:04:41.109Z,51.216217
2022-10-01T05:05:41.132Z,51.216217
2022-10-01T05:06:42.092Z,51.216133
2022-10-01T05:07:41.076Z,51.216049
2022-10-01T05:08:41.109Z,51.216103
2022-10-01T05:09:41.076Z,51.216053
2022-10-01T05:10:41.066Z,51.216072
2022-10-01T05:11:41.068Z,51.216072
2022-10-01T05:12:41.056Z,51.216133
2022-10-01T05:13:41.056Z,51.216171
2022-10-01T05:14:41.035Z,51.216091
2022-10-01T05:15:41.034Z,51.216240
2022-10-01T05:16:41.116Z,51.216232
2022-10-01T05:17:41.020Z,51.216171
2022-10-01T05:18:41.028Z,51.216118
2022-10-01T05:19:41.012Z,51.216110
2022-10-01T05:20:41.000Z,51.216000
2022-10-01T05:21:40.992Z,51.215984
2022-10-01T05:22:40.980Z,51.216019
2022-10-01T05:23:41.153Z,51.216049
2022-10-01T05:24:40.976Z,51.216026
2022-10-01T05:25:40.965Z,51.216087
2022-10-01T05:26:40.948Z,51.216145
2022-10-01T05:27:40.947Z,51.216316
2022-10-01T05:28:40.980Z,51.216278
2022-10-01T05:29:40.941Z,51.216251
2022-10-01T05:30:40.928Z,51.216232
2022-10-01T05:31:40.950Z,51.216213
2022-10-01T05:32:40.908Z,51.216110
2022-10-01T05:33:40.903Z,51.216084
2022-10-01T05:34:40.928Z,51.215916
2022-10-01T05:35:40.896Z,51.215851
2022-10-01T05:36:40.880Z,51.216015
2022-10-01T05:37:40.865Z,51.216011
2022-10-01T05:38:40.873Z,51.216095
2022-10-01T05:39:40.880Z,51.216099
2022-10-01T05:40:40.860Z,51.216087
2022-10-01T05:41:40.859Z,51.216103
2022-10-01T05:42:40.841Z,51.216091
2022-10-01T05:43:40.824Z,51.216053
2022-10-01T05:44:40.838Z,51.216076
2022-10-01T05:45:40.882Z,51.216103
2022-10-01T05:46:40.813Z,51.216125
2022-10-01T05:47:40.833Z,51.216103
2022-10-01T05:48:40.807Z,51.216091
2022-10-01T05:49:40.784Z,51.216110
2022-10-01T05:50:40.801Z,51.216087
2022-10-01T05:51:40.783Z,51.216133
2022-10-01T05:52:40.769Z,51.216053
2022-10-01T05:53:40.771Z,51.216106
2022-10-01T05:54:40.762Z,51.216160
2022-10-01T05:55:40.760Z,51.216129
2022-10-01T05:56:40.748Z,51.216087
2022-10-01T05:57:40.748Z,51.216103
2022-10-01T05:58:40.716Z,51.216106
2022-10-01T05:59:40.722Z,51.216133
2022-10-01T06:00:40.723Z,51.216122
2022-10-01T06:01:40.764Z,51.216068
2022-10-01T06:02:40.855Z,51.216114
2022-10-01T06:03:40.696Z,51.216141
2022-10-01T06:04:41.381Z,51.216160
2022-10-01T06:05:41.679Z,51.216106
2022-10-01T06:06:40.695Z,51.216164
2022-10-01T06:07:40.668Z,51.216145
2022-10-01T06:08:40.663Z,51.216160
2022-10-01T06:09:40.664Z,51.216213
2022-10-01T06:10:40.656Z,51.216164
2022-10-01T06:11:40.631Z,51.216217
2022-10-01T06:12:40.634Z,51.216167
2022-10-01T06:13:40.651Z,51.216164
2022-10-01T06:14:40.751Z,51.216141
2022-10-01T06:15:40.629Z,51.216141
2022-10-01T06:16:40.716Z,51.216125
2022-10-01T06:17:40.596Z,51.216183
2022-10-01T06:18:40.619Z,51.216152
2022-10-01T06:19:40.588Z,51.216190
2022-10-01T06:20:40.576Z,51.216213
2022-10-01T06:21:40.577Z,51.216110
2022-10-01T06:22:40.579Z,51.216122
2022-10-01T06:23:40.572Z,51.216103
2022-10-01T06:24:40.548Z,51.216129
2022-10-01T06:25:40.544Z,51.216141
2022-10-01T06:26:40.544Z,51.216156
2022-10-01T06:27:40.538Z,51.216099
2022-10-01T06:28:40.525Z,51.216145
2022-10-01T06:29:40.541Z,51.216080
2022-10-01T06:30:40.504Z,51.216084
2022-10-01T06:31:40.554Z,51.216049
2022-10-01T06:32:40.496Z,51.216068
2022-10-01T06:33:40.487Z,51.216057
2022-10-01T06:34:40.496Z,51.216011
2022-10-01T06:35:40.469Z,51.216118
2022-10-01T06:36:40.464Z,51.216103
2022-10-01T06:37:40.461Z,51.216057
2022-10-01T06:38:40.454Z,51.216080
2022-10-01T06:39:40.449Z,51.216110
2022-10-01T06:40:40.459Z,51.216145
2022-10-01T06:41:40.427Z,51.216076
2022-10-01T06:42:40.419Z,51.216103
2022-10-01T06:43:40.418Z,51.216099
2022-10-01T06:44:40.399Z,51.216106
2022-10-01T06:45:40.467Z,51.216068
2022-10-01T06:46:40.388Z,51.216087
2022-10-01T06:47:40.389Z,51.215996
2022-10-01T06:48:40.379Z,51.216057
2022-10-01T06:49:41.539Z,51.216045
2022-10-01T06:50:40.364Z,51.216091
2022-10-01T06:51:40.373Z,51.216114
2022-10-01T06:52:40.460Z,51.215996
2022-10-01T06:53:40.335Z,51.215996
2022-10-01T06:54:40.332Z,51.216053
2022-10-01T06:55:40.319Z,51.216118
2022-10-01T06:56:40.339Z,51.215969
2022-10-01T06:57:40.315Z,51.216000
2022-10-01T06:58:40.309Z,51.216110
2022-10-01T06:59:40.300Z,51.216145
2022-10-01T07:00:40.350Z,51.216103
2022-10-01T07:01:40.322Z,51.216038
2022-10-01T07:02:40.428Z,51.216034
2022-10-01T07:03:40.285Z,51.216034
2022-10-01T07:04:40.270Z,51.216091
2022-10-01T07:05:40.252Z,51.216110
2022-10-01T07:06:40.239Z,51.216164
2022-10-01T07:07:40.253Z,51.216148
2022-10-01T07:08:40.247Z,51.216145
2022-10-01T07:09:40.264Z,51.216091
2022-10-01T07:10:40.230Z,51.216068
2022-10-01T07:11:40.213Z,51.216133
2022-10-01T07:12:40.202Z,51.216053
2022-10-01T07:13:40.218Z,51.216076
2022-10-01T07:14:40.205Z,51.216156
2022-10-01T07:15:40.184Z,51.216351
2022-10-01T07:16:40.227Z,51.216236
2022-10-01T07:17:40.173Z,51.216103
2022-10-01T07:18:40.168Z,51.216076
2022-10-01T07:19:40.167Z,51.216042
2022-10-01T07:20:40.152Z,51.216003
2022-10-01T07:21:40.158Z,51.216217
2022-10-01T07:22:40.138Z,51.215988
2022-10-01T07:23:40.135Z,51.216099
2022-10-01T07:24:40.125Z,51.216072
2022-10-01T07:25:40.121Z,51.216171
2022-10-01T07:26:40.117Z,51.216152
2022-10-01T07:27:40.097Z,51.216110
2022-10-01T07:28:40.085Z,51.216053
2022-10-01T07:29:40.083Z,51.216114
2022-10-01T07:30:40.078Z,51.216064
2022-10-01T07:31:40.112Z,51.216038
2022-10-01T07:32:40.077Z,51.216110
2022-10-01T07:33:40.061Z,51.216164
2022-10-01T07:34:40.048Z,51.216137
2022-10-01T07:35:40.042Z,51.216064
2022-10-01T07:36:40.053Z,51.216148
2022-10-01T07:37:40.025Z,51.216091
2022-10-01T07:38:40.026Z,51.215992
2022-10-01T07:39:40.006Z,51.216095
2022-10-01T07:40:39.997Z,51.216122
2022-10-01T07:41:40.011Z,51.216148
2022-10-01T07:42:40.099Z,51.216084
2022-10-01T07:43:39.981Z,51.216072
2022-10-01T07:44:39.970Z,51.216084
2022-10-01T07:45:39.982Z,51.216057
2022-10-01T07:46:39.961Z,51.216076
2022-10-01T07:47:39.964Z,51.216045
2022-10-01T07:48:39.941Z,51.216030
2022-10-01T07:49:39.933Z,51.216122
2022-10-01T07:50:39.925Z,51.216129
2022-10-01T07:51:39.921Z,51.216114
2022-10-01T07:52:39.929Z,51.216125
2022-10-01T07:53:39.905Z,51.216076
2022-10-01T07:54:39.894Z,51.216030
2022-10-01T07:55:39.901Z,51.216080
2022-10-01T07:56:39.893Z,51.215954
2022-10-01T07:57:39.890Z,51.216000
2022-10-01T07:58:39.873Z,51.216080
2022-10-01T07:59:39.866Z,51.216068
2022-10-01T08:00:39.862Z,51.216125
2022-10-01T08:01:39.880Z,51.216171
2022-10-01T08:02:39.943Z,51.216053
2022-10-01T08:03:39.829Z,51.216022
2022-10-01T08:04:39.834Z,51.216206
2022-10-01T08:05:39.825Z,51.216171
2022-10-01T08:06:39.805Z,51.216087
2022-10-01T08:07:39.805Z,51.216049
2022-10-01T08:08:39.809Z,51.216125
2022-10-01T08:09:39.791Z,51.216080
2022-10-01T08:10:39.793Z,51.216042
2022-10-01T08:11:39.777Z,51.216000
2022-10-01T08:12:39.770Z,51.216042
2022-10-01T08:13:39.773Z,51.216049
2022-10-01T08:14:39.766Z,51.216042
2022-10-01T08:15:39.745Z,51.216087
2022-10-01T08:16:39.807Z,51.216003
2022-10-01T08:17:39.728Z,51.215950
2022-10-01T08:18:39.729Z,51.216068
2022-10-01T08:19:39.717Z,51.215889
2022-10-01T08:20:39.722Z,51.215820
2022-10-01T08:21:39.696Z,51.216000
2022-10-01T08:22:42.102Z,51.216068
2022-10-01T08:23:40.734Z,51.216087
2022-10-01T08:24:39.677Z,51.216091
2022-10-01T08:25:39.692Z,51.216328
2022-10-01T08:26:39.675Z,51.216190
2022-10-01T08:27:39.661Z,51.216221
2022-10-01T08:28:39.653Z,51.216110
2022-10-01T08:29:39.681Z,51.216225
2022-10-01T08:30:39.651Z,51.216030
2022-10-01T08:31:39.664Z,51.215996
2022-10-01T08:32:39.620Z,51.216148
2022-10-01T08:33:39.620Z,51.216011
2022-10-01T08:34:39.624Z,51.215813
2022-10-01T08:35:39.629Z,51.215862
2022-10-01T08:36:39.592Z,51.215988
2022-10-01T08:37:39.590Z,51.216106
2022-10-01T08:38:39.583Z,51.216064
2022-10-01T08:39:39.584Z,51.215992
2022-10-01T08:40:39.565Z,51.216026
2022-10-01T08:41:39.991Z,51.216118
2022-10-01T08:42:39.544Z,51.216129
2022-10-01T08:43:39.534Z,51.216175
2022-10-01T08:44:39.533Z,51.216080
2022-10-01T08:45:39.553Z,51.215916
2022-10-01T08:46:39.520Z,51.215839
2022-10-01T08:47:39.517Z,51.215919
2022-10-01T08:48:39.506Z,51.216095
2022-10-01T08:49:39.500Z,51.216221
2022-10-01T08:50:39.504Z,51.216129
2022-10-01T08:51:39.484Z,51.216064
2022-10-01T08:52:39.469Z,51.216125
2022-10-01T08:53:39.477Z,51.216030
2022-10-01T08:54:39.457Z,51.216072
2022-10-01T08:55:39.470Z,51.216125
2022-10-01T08:56:39.468Z,51.216072
2022-10-01T08:57:39.443Z,51.216110
2022-10-01T08:58:39.428Z,51.216049
2022-10-01T08:59:39.425Z,51.216305
2022-10-01T09:00:39.418Z,51.216156
2022-10-01T09:01:39.698Z,51.215912
2022-10-01T09:02:39.404Z,51.216103
2022-10-01T09:03:39.404Z,51.216095
2022-10-01T09:04:39.449Z,51.216084
2022-10-01T09:05:39.384Z,51.215981
2022-10-01T09:06:39.392Z,51.215919
2022-10-01T09:07:39.369Z,51.215900
2022-10-01T09:08:39.356Z,51.215981
2022-10-01T09:09:39.345Z,51.215832
2022-10-01T09:10:39.337Z,51.215919
2022-10-01T09:11:39.345Z,51.216022
2022-10-01T09:12:39.332Z,51.216076
2022-10-01T09:13:39.320Z,51.215996
2022-10-01T09:14:39.303Z,51.216053
2022-10-01T09:15:40.308Z,51.215858
2022-10-01T09:16:39.374Z,51.216106
2022-10-01T09:17:39.300Z,51.216019
2022-10-01T09:18:39.280Z,51.215946
2022-10-01T09:19:40.862Z,51.215946
2022-10-01T09:20:40.276Z,51.216160
2022-10-01T09:21:39.273Z,51.216206
2022-10-01T09:22:39.268Z,51.215801
2022-10-01T09:23:39.253Z,51.215580
2022-10-01T09:24:39.236Z,51.215710
2022-10-01T09:25:39.233Z,51.215805
2022-10-01T09:26:39.228Z,51.215870
2022-10-01T09:27:39.227Z,51.215923
2022-10-01T09:28:39.223Z,51.216164
2022-10-01T09:29:39.208Z,51.216274
2022-10-01T09:30:39.200Z,51.216152
2022-10-01T09:31:39.262Z,51.216022
2022-10-01T09:32:39.208Z,51.216187
2022-10-01T09:33:39.179Z,51.216187
2022-10-01T09:34:39.168Z,51.216103
2022-10-01T09:35:39.163Z,51.216061
2022-10-01T09:36:39.155Z,51.215866
2022-10-01T09:37:39.163Z,51.215946
2022-10-01T09:38:39.144Z,51.215878
2022-10-01T09:39:39.148Z,51.215748
2022-10-01T09:40:39.127Z,51.215809
2022-10-01T09:41:39.134Z,51.216015
2022-10-01T09:42:39.104Z,51.215874
2022-10-01T09:43:39.124Z,51.216007
2022-10-01T09:44:39.096Z,51.216122
2022-10-01T09:45:39.146Z,51.215961
2022-10-01T09:46:39.096Z,51.215984
2022-10-01T09:47:39.080Z,51.216106
2022-10-01T09:48:39.063Z,51.216152
2022-10-01T09:49:39.059Z,51.216087
2022-10-01T09:50:39.055Z,51.216225
2022-10-01T09:51:40.718Z,51.216022
2022-10-01T09:52:40.040Z,51.215858
2022-10-01T09:53:39.048Z,51.215496
2022-10-01T09:54:39.016Z,51.215614
2022-10-01T09:55:39.029Z,51.215691
2022-10-01T09:56:39.012Z,51.215782
2022-10-01T09:57:39.004Z,51.215797
2022-10-01T09:58:39.008Z,51.216019
2022-10-01T09:59:38.992Z,51.216064
2022-10-01T10:00:38.985Z,51.216087
2022-10-01T10:01:39.230Z,51.216190
2022-10-01T10:02:39.076Z,51.216110
2022-10-01T10:03:39.035Z,51.216057
2022-10-01T10:04:38.962Z,51.216103
2022-10-01T10:05:38.948Z,51.216080
2022-10-01T10:06:38.953Z,51.216072
2022-10-01T10:07:38.944Z,51.216110
2022-10-01T10:08:38.947Z,51.215988
2022-10-01T10:09:38.918Z,51.216057
2022-10-01T10:10:38.920Z,51.216030
2022-10-01T10:11:38.911Z,51.215900
2022-10-01T10:12:38.899Z,51.216030
2022-10-01T10:13:38.912Z,51.215881
2022-10-01T10:14:38.888Z,51.216053
2022-10-01T10:15:38.902Z,51.216236
2022-10-01T10:16:39.027Z,51.216183
2022-10-01T10:17:38.871Z,51.216099
2022-10-01T10:18:38.859Z,51.216072
2022-10-01T10:19:38.867Z,51.216049
2022-10-01T10:20:38.849Z,51.215935
2022-10-01T10:21:38.838Z,51.216000
2022-10-01T10:22:38.826Z,51.215996
2022-10-01T10:23:38.819Z,51.216015
2022-10-01T10:24:39.831Z,51.216045
2022-10-01T10:25:38.823Z,51.216084
2022-10-01T10:26:39.209Z,51.216072
2022-10-01T10:27:38.791Z,51.216000
2022-10-01T10:28:42.116Z,51.216057
2022-10-01T10:29:40.795Z,51.216022
2022-10-01T10:30:38.778Z,51.216057
2022-10-01T10:31:38.803Z,51.215965
2022-10-01T10:32:38.768Z,51.215858
2022-10-01T10:33:38.757Z,51.215961
2022-10-01T10:34:38.762Z,51.215988
2022-10-01T10:35:38.737Z,51.216057
2022-10-01T10:36:38.888Z,51.216164
2022-10-01T10:37:38.723Z,51.215942
2022-10-01T10:38:38.717Z,51.215981
2022-10-01T10:39:38.725Z,51.215981
2022-10-01T10:40:38.708Z,51.216045
2022-10-01T10:41:38.816Z,51.216076
2022-10-01T10:42:38.716Z,51.216133
2022-10-01T10:43:38.689Z,51.216148
2022-10-01T10:44:38.681Z,51.216164
2022-10-01T10:45:38.689Z,51.216145
2022-10-01T10:46:42.801Z,51.216183
2022-10-01T10:47:39.661Z,51.216183
2022-10-01T10:48:38.672Z,51.216106
2022-10-01T10:49:38.644Z,51.216057
2022-10-01T10:50:38.647Z,51.216076
2022-10-01T10:51:38.632Z,51.216019
2022-10-01T10:52:40.789Z,51.215851
2022-10-01T10:53:39.617Z,51.215744
2022-10-01T10:54:38.608Z,51.216053
2022-10-01T10:55:38.620Z,51.216187
2022-10-01T10:56:38.583Z,51.216114
2022-10-01T10:57:38.596Z,51.216091
2022-10-01T10:58:38.572Z,51.216000
2022-10-01T10:59:38.571Z,51.215858
2022-10-01T11:00:38.566Z,51.215912
2022-10-01T11:01:38.629Z,51.216000
2022-10-01T11:02:38.632Z,51.216038
2022-10-01T11:03:38.548Z,51.216148
2022-10-01T11:04:38.547Z,51.216137
2022-10-01T11:05:38.536Z,51.216133
2022-10-01T11:06:38.540Z,51.216076
2022-10-01T11:07:38.516Z,51.216145
2022-10-01T11:08:39.507Z,51.216103
2022-10-01T11:09:38.503Z,51.216236
2022-10-01T11:10:38.495Z,51.216179
2022-10-01T11:11:38.494Z,51.216099
2022-10-01T11:12:38.504Z,51.216183
2022-10-01T11:13:38.472Z,51.216125
2022-10-01T11:14:38.472Z,51.216183
2022-10-01T11:15:38.501Z,51.216171
2022-10-01T11:16:38.447Z,51.216206
2022-10-01T11:17:38.473Z,51.216248
2022-10-01T11:18:38.439Z,51.216221
2022-10-01T11:19:38.421Z,51.216244
2022-10-01T11:20:38.436Z,51.216076
2022-10-01T11:21:38.428Z,51.216125
2022-10-01T11:22:38.425Z,51.216095
2022-10-01T11:23:38.396Z,51.216042
2022-10-01T11:24:38.395Z,51.216038